Time,TemperatureF,DewpointF,PressureIn,WindDirection,WindDirectionDegrees,WindSpeedMPH,WindSpeedGustMPH,Humidity,HourlyPrecipIn,Conditions,Clouds,dailyrainin,SoftwareType,DateUTC
2013-10-10 00:02:00,58.9,57.0,30.10,NE,52,0.0,0.0,94,0.00,,,0.00,weatherlink.com 1.10,2013-10-10 05:02:00,
2013-10-10 00:17:00,58.8,57.0,30.10,NE,52,0.0,0.0,94,0.00,,,0.00,weatherlink.com 1.10,2013-10-10 05:17:00,
2013-10-10 00:32:00,59.0,57.0,30.10,NE,52,0.0,0.0,94,0.00,,,0.00,weatherlink.com 1.10,2013-10-10 05:32:00,
2013-10-10 00:47:00,59.1,57.0,30.10,NE,53,0.0,1.0,94,0.00,,,0.00,weatherlink.com 1.10,2013-10-10 05:47:00,
2013-10-10 01:02:00,59.0,57.0,30.10,NE,53,0.0,0.0,94,0.00,,,0.00,weatherlink.com 1.10,2013-10-10 06:02:00,
2013-10-10 01:17:00,58.7,57.0,30.10,NE,53,0.0,0.0,93,0.00,,,0.00,weatherlink.com 1.10,2013-10-10 06:17:00,
2013-10-10 01:32:00,58.5,57.0,30.10,NE,53,0.0,0.0,93,0.00,,,0.00,weatherlink.com 1.10,2013-10-10 06:32:00,
2013-10-10 01:47:00,58.2,57.0,30.10,NE,53,0.0,0.0,94,0.00,,,0.00,weatherlink.com 1.10,2013-10-10 06:47:00,
2013-10-10 02:02:00,57.9,56.0,30.10,NE,53,0.0,0.0,93,0.00,,,0.00,weatherlink.com 1.10,2013-10-10 07:02:00,
2013-10-10 02:17:00,57.6,56.0,30.10,NE,53,0.0,0.0,94,0.00,,,0.00,weatherlink.com 1.10,2013-10-10 07:17:00,
2013-10-10 02:32:00,57.4,56.0,30.10,NE,53,0.0,0.0,94,0.00,,,0.00,weatherlink.com 1.10,2013-10-10 07:32:00,
2013-10-10 02:47:00,57.1,55.0,30.10,NE,53,0.0,0.0,93,0.00,,,0.00,weatherlink.com 1.10,2013-10-10 07:47:00,
2013-10-10 03:02:00,56.8,55.0,30.10,NE,53,0.0,0.0,94,0.00,,,0.00,weatherlink.com 1.10,2013-10-10 08:02:00,
2013-10-10 03:17:00,56.5,55.0,30.09,NE,53,0.0,0.0,93,0.00,,,0.00,weatherlink.com 1.10,2013-10-10 08:17:00,
2013-10-10 03:32:00,56.2,55.0,30.09,NE,53,0.0,0.0,94,0.00,,,0.00,weatherlink.com 1.10,2013-10-10 08:32:00,
2013-10-10 03:47:00,56.1,54.0,30.09,NE,53,0.0,0.0,94,0.00,,,0.00,weatherlink.com 1.10,2013-10-10 08:47:00,
2013-10-10 04:02:00,56.0,54.0,30.10,NE,53,0.0,0.0,94,0.00,,,0.00,weatherlink.com 1.10,2013-10-10 09:02:00,
2013-10-10 04:17:00,55.8,54.0,30.10,NE,53,0.0,0.0,94,0.00,,,0.00,weatherlink.com 1.10,2013-10-10 09:17:00,
2013-10-10 04:32:00,55.7,54.0,30.11,NE,53,0.0,0.0,94,0.00,,,0.00,weatherlink.com 1.10,2013-10-10 09:32:00,
2013-10-10 04:47:00,55.6,54.0,30.11,NE,53,0.0,0.0,94,0.00,,,0.00,weatherlink.com 1.10,2013-10-10 09:47:00,
2013-10-10 05:02:00,55.7,54.0,30.11,NE,53,0.0,0.0,94,0.00,,,0.00,weatherlink.com 1.10,2013-10-10 10:02:00,
2013-10-10 05:17:00,55.7,54.0,30.11,NE,53,0.0,0.0,94,0.00,,,0.00,weatherlink.com 1.10,2013-10-10 10:17:00,
2013-10-10 05:32:00,55.9,55.0,30.11,NE,53,0.0,0.0,95,0.00,,,0.00,weatherlink.com 1.10,2013-10-10 10:32:00,
2013-10-10 05:47:00,56.0,55.0,30.12,NE,53,0.0,0.0,95,0.00,,,0.00,weatherlink.com 1.10,2013-10-10 10:47:00,
2013-10-10 06:02:00,55.9,55.0,30.12,NE,53,0.0,0.0,95,0.00,,,0.00,weatherlink.com 1.10,2013-10-10 11:02:00,
2013-10-10 06:17:00,56.0,55.0,30.12,NE,53,0.0,0.0,95,0.00,,,0.00,weatherlink.com 1.10,2013-10-10 11:17:00,
2013-10-10 06:32:00,56.2,55.0,30.12,NE,53,0.0,0.0,95,0.00,,,0.00,weatherlink.com 1.10,2013-10-10 11:32:00,
2013-10-10 06:47:00,56.3,55.0,30.12,NE,53,0.0,0.0,95,0.00,,,0.00,weatherlink.com 1.10,2013-10-10 11:47:00,
2013-10-10 07:02:00,56.5,55.0,30.13,NE,53,0.0,0.0,95,0.00,,,0.00,weatherlink.com 1.10,2013-10-10 12:02:00,
2013-10-10 07:17:00,56.7,55.0,30.12,NE,53,0.0,0.0,95,0.00,,,0.00,weatherlink.com 1.10,2013-10-10 12:17:00,
2013-10-10 07:32:00,56.9,56.0,30.13,NE,53,0.0,0.0,95,0.00,,,0.00,weatherlink.com 1.10,2013-10-10 12:32:00,
2013-10-10 07:47:00,57.2,56.0,30.14,NE,55,0.0,0.0,95,0.00,,,0.00,weatherlink.com 1.10,2013-10-10 12:47:00,
2013-10-10 08:02:00,57.5,56.0,30.14,NE,55,0.0,0.0,95,0.00,,,0.00,weatherlink.com 1.10,2013-10-10 13:02:00,
2013-10-10 08:17:00,57.8,56.0,30.14,NE,55,0.0,0.0,95,0.00,,,0.00,weatherlink.com 1.10,2013-10-10 13:17:00,
2013-10-10 08:32:00,58.0,57.0,30.15,NE,55,0.0,0.0,95,0.00,,,0.00,weatherlink.com 1.10,2013-10-10 13:32:00,
2013-10-10 08:47:00,59.1,58.0,30.15,NE,55,0.0,1.0,95,0.00,,,0.00,weatherlink.com 1.10,2013-10-10 13:47:00,
2013-10-10 09:02:00,60.3,59.0,30.15,NE,55,0.0,0.0,95,0.00,,,0.00,weatherlink.com 1.10,2013-10-10 14:02:00,
2013-10-10 09:18:00,61.5,60.0,30.15,NE,55,0.0,0.0,95,0.00,,,0.00,weatherlink.com 1.10,2013-10-10 14:18:00,
2013-10-10 09:33:00,63.6,63.0,30.15,NE,56,0.0,2.0,96,0.00,,,0.00,weatherlink.com 1.10,2013-10-10 14:33:00,
2013-10-10 09:48:00,65.7,65.0,30.15,SW,229,3.0,5.0,96,0.00,,,0.00,weatherlink.com 1.10,2013-10-10 14:48:00,
2013-10-10 10:03:00,66.8,65.0,30.15,SW,222,2.0,6.0,95,0.00,,,0.00,weatherlink.com 1.10,2013-10-10 15:03:00,
2013-10-10 10:18:00,68.2,65.0,30.14,WSW,251,2.0,4.0,88,0.00,,,0.00,weatherlink.com 1.10,2013-10-10 15:18:00,
2013-10-10 10:33:00,68.8,64.0,30.14,ENE,61,0.0,4.0,85,0.00,,,0.00,weatherlink.com 1.10,2013-10-10 15:33:00,
2013-10-10 10:48:00,69.9,65.0,30.14,NNW,341,1.0,4.0,83,0.00,,,0.00,weatherlink.com 1.10,2013-10-10 15:48:00,
2013-10-10 11:03:00,70.6,65.0,30.14,WSW,238,0.0,4.0,81,0.00,,,0.00,weatherlink.com 1.10,2013-10-10 16:03:00,
2013-10-10 11:18:00,71.2,64.0,30.14,WSW,238,0.0,4.0,77,0.00,,,0.00,weatherlink.com 1.10,2013-10-10 16:18:00,
2013-10-10 11:33:00,71.5,64.0,30.14,SW,232,3.0,3.0,76,0.00,,,0.00,weatherlink.com 1.10,2013-10-10 16:33:00,
2013-10-10 11:48:00,72.2,64.0,30.13,West,263,0.0,4.0,76,0.00,,,0.00,weatherlink.com 1.10,2013-10-10 16:48:00,
2013-10-10 12:33:00,73.9,64.0,30.11,ENE,57,0.0,3.0,72,0.00,,,0.00,weatherlink.com 1.10,2013-10-10 17:33:00,
2013-10-10 12:48:00,73.9,63.0,30.11,NNE,16,0.0,2.0,68,0.00,,,0.00,weatherlink.com 1.10,2013-10-10 17:48:00,
2013-10-10 13:03:00,74.0,64.0,30.10,NE,34,3.0,4.0,70,0.00,,,0.00,weatherlink.com 1.10,2013-10-10 18:03:00,
2013-10-10 13:18:00,74.5,63.0,30.10,NNW,327,0.0,3.0,68,0.00,,,0.00,weatherlink.com 1.10,2013-10-10 18:18:00,
2013-10-10 13:33:00,74.8,64.0,30.09,NNW,327,0.0,1.0,70,0.00,,,0.00,weatherlink.com 1.10,2013-10-10 18:33:00,
2013-10-10 13:48:00,75.3,64.0,30.09,WSW,245,4.0,4.0,67,0.00,,,0.00,weatherlink.com 1.10,2013-10-10 18:48:00,
2013-10-10 14:03:00,76.3,63.0,30.08,South,186,1.0,3.0,64,0.00,,,0.00,weatherlink.com 1.10,2013-10-10 19:03:00,
2013-10-10 14:18:00,77.3,63.0,30.07,SW,218,2.0,3.0,61,0.00,,,0.00,weatherlink.com 1.10,2013-10-10 19:18:00,
2013-10-10 14:49:00,76.6,63.0,30.06,South,171,0.0,1.0,64,0.00,,,0.00,weatherlink.com 1.10,2013-10-10 19:49:00,
2013-10-10 15:04:00,76.8,62.0,30.05,ESE,108,0.0,2.0,61,0.00,,,0.00,weatherlink.com 1.10,2013-10-10 20:04:00,
2013-10-10 15:19:00,77.2,63.0,30.05,SSE,157,0.0,3.0,61,0.00,,,0.00,weatherlink.com 1.10,2013-10-10 20:19:00,
2013-10-10 15:34:00,76.9,64.0,30.04,SSE,157,0.0,0.0,65,0.00,,,0.00,weatherlink.com 1.10,2013-10-10 20:34:00,
2013-10-10 15:49:00,76.7,64.0,30.04,ESE,103,1.0,2.0,65,0.00,,,0.00,weatherlink.com 1.10,2013-10-10 20:49:00,
2013-10-10 16:04:00,75.2,64.0,30.04,ESE,103,0.0,1.0,68,0.00,,,0.00,weatherlink.com 1.10,2013-10-10 21:04:00,
2013-10-10 16:34:00,74.9,66.0,30.03,ESE,103,0.0,0.0,73,0.00,,,0.00,weatherlink.com 1.10,2013-10-10 21:34:00,
2013-10-10 16:49:00,74.3,66.0,30.03,ESE,103,0.0,0.0,76,0.00,,,0.00,weatherlink.com 1.10,2013-10-10 21:49:00,
2013-10-10 17:04:00,73.7,66.0,30.03,ESE,103,0.0,0.0,76,0.00,,,0.00,weatherlink.com 1.10,2013-10-10 22:04:00,
2013-10-10 17:19:00,73.7,65.0,30.03,ENE,76,0.0,2.0,75,0.00,,,0.00,weatherlink.com 1.10,2013-10-10 22:19:00,
2013-10-10 17:34:00,73.6,66.0,30.03,ENE,76,0.0,0.0,77,0.00,,,0.00,weatherlink.com 1.10,2013-10-10 22:34:00,
2013-10-10 17:49:00,72.5,65.0,30.02,ENE,76,0.0,0.0,78,0.00,,,0.00,weatherlink.com 1.10,2013-10-10 22:49:00,
2013-10-10 18:04:00,71.2,64.0,30.02,ENE,76,0.0,0.0,79,0.00,,,0.00,weatherlink.com 1.10,2013-10-10 23:04:00,
2013-10-10 18:19:00,69.8,64.0,30.02,ENE,76,0.0,0.0,82,0.00,,,0.00,weatherlink.com 1.10,2013-10-10 23:19:00,
2013-10-10 18:34:00,68.4,63.0,30.02,ENE,76,0.0,0.0,84,0.00,,,0.00,weatherlink.com 1.10,2013-10-10 23:34:00,
2013-10-10 18:49:00,67.1,63.0,30.02,ENE,76,0.0,0.0,85,0.00,,,0.00,weatherlink.com 1.10,2013-10-10 23:49:00,
2013-10-10 19:04:00,66.0,62.0,30.02,ENE,76,0.0,0.0,86,0.00,,,0.00,weatherlink.com 1.10,2013-10-11 00:04:00,
2013-10-10 19:19:00,64.9,61.0,30.02,ENE,76,0.0,0.0,87,0.00,,,0.00,weatherlink.com 1.10,2013-10-11 00:19:00,
2013-10-10 19:34:00,64.0,60.0,30.02,ENE,76,0.0,0.0,88,0.00,,,0.00,weatherlink.com 1.10,2013-10-11 00:34:00,
2013-10-10 19:49:00,63.1,60.0,30.02,ENE,76,0.0,0.0,89,0.00,,,0.00,weatherlink.com 1.10,2013-10-11 00:49:00,
2013-10-10 20:04:00,62.5,59.0,30.02,ENE,76,0.0,0.0,89,0.00,,,0.00,weatherlink.com 1.10,2013-10-11 01:04:00,
2013-10-10 20:19:00,61.9,59.0,30.02,ENE,76,0.0,0.0,90,0.00,,,0.00,weatherlink.com 1.10,2013-10-11 01:19:00,
2013-10-10 20:34:00,61.4,59.0,30.02,ENE,76,0.0,0.0,90,0.00,,,0.00,weatherlink.com 1.10,2013-10-11 01:34:00,
2013-10-10 20:49:00,60.7,58.0,30.02,ENE,76,0.0,0.0,90,0.00,,,0.00,weatherlink.com 1.10,2013-10-11 01:49:00,
2013-10-10 21:04:00,60.1,57.0,30.03,ENE,76,0.0,0.0,90,0.00,,,0.00,weatherlink.com 1.10,2013-10-11 02:04:00,
2013-10-10 21:19:00,59.6,57.0,30.03,ENE,76,0.0,0.0,91,0.00,,,0.00,weatherlink.com 1.10,2013-10-11 02:19:00,
2013-10-10 21:34:00,59.2,57.0,30.03,ENE,76,0.0,0.0,91,0.00,,,0.00,weatherlink.com 1.10,2013-10-11 02:34:00,
2013-10-10 21:49:00,58.8,56.0,30.03,ENE,76,0.0,0.0,91,0.00,,,0.00,weatherlink.com 1.10,2013-10-11 02:49:00,
2013-10-10 22:04:00,58.5,56.0,30.02,ENE,76,0.0,0.0,91,0.00,,,0.00,weatherlink.com 1.10,2013-10-11 03:04:00,
2013-10-10 22:19:00,58.2,56.0,30.02,ENE,76,0.0,0.0,92,0.00,,,0.00,weatherlink.com 1.10,2013-10-11 03:19:00,
2013-10-10 22:34:00,57.9,56.0,30.02,ENE,76,0.0,0.0,92,0.00,,,0.00,weatherlink.com 1.10,2013-10-11 03:34:00,
2013-10-10 22:49:00,57.6,55.0,30.02,ENE,76,0.0,0.0,92,0.00,,,0.00,weatherlink.com 1.10,2013-10-11 03:49:00,
2013-10-10 23:04:00,57.4,55.0,30.02,ENE,76,0.0,0.0,92,0.00,,,0.00,weatherlink.com 1.10,2013-10-11 04:04:00,
2013-10-10 23:19:00,57.1,55.0,30.02,ENE,76,0.0,0.0,92,0.00,,,0.00,weatherlink.com 1.10,2013-10-11 04:19:00,
2013-10-10 23:34:00,56.7,55.0,30.02,ENE,76,0.0,0.0,92,0.00,,,0.00,weatherlink.com 1.10,2013-10-11 04:34:00,
2013-10-10 23:49:00,56.5,55.0,30.01,ENE,76,0.0,0.0,93,0.00,,,0.00,weatherlink.com 1.10,2013-10-11 04:49:00,